This is the latest recevied weather packets stored in our database for station/object HP1CDW-11. If no packets are shown the sender has not sent any weather packets the latest 10 day(s).
| Time | Temp. | Humidity | Pressure | Rain* | Wind** | Luminosity | Snow |
|---|---|---|---|---|---|---|---|
| 1778171360 | 30° C | 33% | 1010.7 hPa | - | - | - | - |
| 1778170759 | 30.56° C | 33% | 1010.7 hPa | - | - | - | - |
| 1778170159 | 30.56° C | 35% | 1010.8 hPa | - | - | - | - |
| 1778169559 | 30° C | 34% | 1010.8 hPa | - | - | - | - |
| 1778168958 | 30° C | 37% | 1010.8 hPa | - | - | - | - |
| 1778168358 | 30° C | 38% | 1010.8 hPa | - | - | - | - |
| 1778167758 | 29.44° C | 39% | 1011 hPa | - | - | - | - |
| 1778167157 | 28.33° C | 42% | 1011.2 hPa | - | - | - | - |
| 1778166557 | 22.78° C | 57% | 1011.2 hPa | - | - | - | - |
| 1778165957 | 22.78° C | 56% | 1011.3 hPa | - | - | - | - |
| 1778165356 | 23.33° C | 57% | 1011.3 hPa | - | - | - | - |
| 1778164756 | 25.56° C | 57% | 1011.2 hPa | - | - | - | - |
| 1778164156 | 31.11° C | 49% | 1011.2 hPa | - | - | - | - |
| 1778163555 | 31.11° C | 50% | 1011.2 hPa | - | - | - | - |
| 1778162955 | 31.11° C | 51% | 1011.3 hPa | - | - | - | - |
| 1778162355 | 31.11° C | 53% | 1011.3 hPa | - | - | - | - |
| 1778161754 | 31.11° C | 54% | 1011.2 hPa | - | - | - | - |
| 1778161154 | 31.11° C | 55% | 1011.1 hPa | - | - | - | - |
| 1778160554 | 31.11° C | 55% | 1011 hPa | - | - | - | - |
| 1778159954 | 31.11° C | 57% | 1010.8 hPa | - | - | - | - |
| 1778159353 | 30.56° C | 59% | 1010.7 hPa | - | - | - | - |
| 1778158753 | 30.56° C | 60% | 1010.8 hPa | - | - | - | - |
| 1778158153 | 30.56° C | 60% | 1010.7 hPa | - | - | - | - |
| 1778157552 | 30.56° C | 60% | 1010.8 hPa | - | - | - | - |
| 1778156952 | 30.56° C | 60% | 1010.9 hPa | - | - | - | - |
* Rain since midnight (hover to see other rain measurements)
** Current wind speed in m/s (hover to see current wind gust speed)